Time;durP1;ratioP1;P1;durP2;ratioP2;P2;SDS_P1;SDS_P2;PMS_P1;PMS_P2;Temp;Humidity;BMP_temperature;BMP_pressure;BME280_temperature;BME280_humidity;BME280_pressure;Samples;Min_cycle;Max_cycle;Signal;HPM_P1;HPM_P2
2020/12/03 00:01:20;;;;;;;0.35;0.35;;;;;;;;;;5054566;28;20052;-71
2020/12/03 00:03:52;;;;;;;0.30;0.30;;;;;;;;;;5037644;28;20017;-71
2020/12/03 00:06:19;;;;;;;0.30;0.30;;;;;;;;;;5034332;28;20047;-71
2020/12/03 00:08:51;;;;;;;0.30;0.30;;;;;;;;;;5026947;28;20021;-72
2020/12/03 00:11:16;;;;;;;0.30;0.30;;;;;;;;;;5051120;28;20021;-72
2020/12/03 00:13:42;;;;;;;0.30;0.30;;;;;;;;;;5034666;28;20462;-72
2020/12/03 00:16:07;;;;;;;0.30;0.30;;;;;;;;;;5054336;28;20009;-71
2020/12/03 00:18:34;;;;;;;0.40;0.40;;;;;;;;;;5055586;28;20023;-72
2020/12/03 00:20:59;;;;;;;0.40;0.40;;;;;;;;;;5054440;28;20032;-72
2020/12/03 00:23:24;;;;;;;0.30;0.30;;;;;;;;;;5054231;28;20462;-72
2020/12/03 00:25:50;;;;;;;0.30;0.30;;;;;;;;;;5054273;28;20016;-72
2020/12/03 00:28:15;;;;;;;0.40;0.40;;;;;;;;;;5054296;28;20013;-72
2020/12/03 00:30:41;;;;;;;0.40;0.40;;;;;;;;;;5056283;28;20416;-71
2020/12/03 00:33:06;;;;;;;0.38;0.38;;;;;;;;;;5055064;28;20028;-71
2020/12/03 00:35:31;;;;;;;0.30;0.30;;;;;;;;;;5038163;28;20492;-70
2020/12/03 00:37:56;;;;;;;0.40;0.40;;;;;;;;;;5037711;28;20021;-72
2020/12/03 00:40:24;;;;;;;0.30;0.30;;;;;;;;;;5063435;28;20279;-73
2020/12/03 00:42:53;;;;;;;0.35;0.35;;;;;;;;;;5064810;28;20552;-72
2020/12/03 00:45:18;;;;;;;0.40;0.40;;;;;;;;;;5054033;28;20028;-71
2020/12/03 00:47:43;;;;;;;0.30;0.30;;;;;;;;;;5036977;28;20013;-71
2020/12/03 00:50:12;;;;;;;0.35;0.35;;;;;;;;;;5036535;28;20297;-71
2020/12/03 00:52:38;;;;;;;0.40;0.40;;;;;;;;;;5036775;28;20031;-72
2020/12/03 00:55:04;;;;;;;0.30;0.30;;;;;;;;;;5053609;28;20506;-72
2020/12/03 00:57:29;;;;;;;0.30;0.30;;;;;;;;;;5017437;28;20025;-71
2020/12/03 00:59:54;;;;;;;0.30;0.30;;;;;;;;;;5036074;28;20029;-72
2020/12/03 01:02:19;;;;;;;0.40;0.40;;;;;;;;;;5060235;28;20031;-72
2020/12/03 01:04:45;;;;;;;0.30;0.30;;;;;;;;;;5059988;28;20289;-72
2020/12/03 01:07:10;;;;;;;0.40;0.40;;;;;;;;;;5077117;28;20040;-72
2020/12/03 01:09:37;;;;;;;0.40;0.40;;;;;;;;;;5076746;28;20085;-72
2020/12/03 01:12:03;;;;;;;0.30;0.30;;;;;;;;;;5060112;28;20027;-72
2020/12/03 01:14:28;;;;;;;0.30;0.30;;;;;;;;;;5056562;28;20033;-72
2020/12/03 01:16:54;;;;;;;0.30;0.30;;;;;;;;;;5073713;28;20499;-72
2020/12/03 01:19:19;;;;;;;0.30;0.30;;;;;;;;;;5076394;28;20387;-71
2020/12/03 01:21:45;;;;;;;0.40;0.40;;;;;;;;;;5094318;28;20028;-71
2020/12/03 01:24:10;;;;;;;0.30;0.30;;;;;;;;;;5059582;28;20112;-71
2020/12/03 01:26:35;;;;;;;0.37;0.37;;;;;;;;;;5059585;28;20020;-72
2020/12/03 01:29:01;;;;;;;0.30;0.30;;;;;;;;;;5059571;28;20253;-72
2020/12/03 01:31:31;;;;;;;0.30;0.30;;;;;;;;;;5094580;28;20388;-72
2020/12/03 01:33:56;;;;;;;0.30;0.30;;;;;;;;;;5094621;28;20119;-72
2020/12/03 01:36:21;;;;;;;0.30;0.30;;;;;;;;;;5059464;28;20056;-72
2020/12/03 01:38:46;;;;;;;0.45;0.45;;;;;;;;;;5094198;28;20099;-73
2020/12/03 01:41:11;;;;;;;0.40;0.40;;;;;;;;;;5076482;28;20108;-73
2020/12/03 01:43:41;;;;;;;0.40;0.40;;;;;;;;;;5059499;28;20266;-73
2020/12/03 01:46:06;;;;;;;0.20;0.20;;;;;;;;;;5076009;28;20040;-72
2020/12/03 01:48:34;;;;;;;0.40;0.40;;;;;;;;;;5076430;28;20024;-72
2020/12/03 01:51:00;;;;;;;0.30;0.30;;;;;;;;;;5075507;28;20349;-71
2020/12/03 01:53:25;;;;;;;0.30;0.30;;;;;;;;;;5059239;28;20186;-72
2020/12/03 01:55:51;;;;;;;0.40;0.40;;;;;;;;;;5059619;28;20047;-71
2020/12/03 01:58:27;;;;;;;0.30;0.30;;;;;;;;;;5076317;28;20016;-72
2020/12/03 02:00:53;;;;;;;0.30;0.30;;;;;;;;;;5069260;28;20037;-72
2020/12/03 02:03:18;;;;;;;0.30;0.30;;;;;;;;;;5052976;28;20017;-72
2020/12/03 02:05:43;;;;;;;0.30;0.30;;;;;;;;;;5053886;28;20460;-72
2020/12/03 02:08:09;;;;;;;0.30;0.30;;;;;;;;;;5073503;28;20024;-72
2020/12/03 02:10:34;;;;;;;0.40;0.40;;;;;;;;;;5056413;28;20027;-72
2020/12/03 02:13:00;;;;;;;0.40;0.40;;;;;;;;;;5073339;28;20308;-72
2020/12/03 02:15:25;;;;;;;0.30;0.30;;;;;;;;;;5073024;28;20020;-72
2020/12/03 02:17:50;;;;;;;0.40;0.40;;;;;;;;;;5073979;28;20037;-71
2020/12/03 02:20:16;;;;;;;0.30;0.30;;;;;;;;;;5055589;28;20086;-72
2020/12/03 02:22:42;;;;;;;0.40;0.40;;;;;;;;;;5074811;28;20074;-72
2020/12/03 02:25:08;;;;;;;0.30;0.30;;;;;;;;;;5090020;28;20423;-72
2020/12/03 02:27:34;;;;;;;0.30;0.30;;;;;;;;;;5072892;28;20051;-72
2020/12/03 02:29:59;;;;;;;0.30;0.30;;;;;;;;;;5056485;28;20024;-72
2020/12/03 02:32:24;;;;;;;0.40;0.40;;;;;;;;;;5073719;28;20389;-72
2020/12/03 02:34:49;;;;;;;0.30;0.30;;;;;;;;;;5055478;28;20032;-72
2020/12/03 02:37:14;;;;;;;0.40;0.40;;;;;;;;;;5072180;28;20031;-72
2020/12/03 02:39:40;;;;;;;0.30;0.30;;;;;;;;;;5055400;28;20283;-72
2020/12/03 02:42:07;;;;;;;0.40;0.40;;;;;;;;;;5073426;28;20658;-72
2020/12/03 02:44:33;;;;;;;0.32;0.32;;;;;;;;;;5056217;28;20357;-72
2020/12/03 02:46:58;;;;;;;0.40;0.40;;;;;;;;;;5072567;28;20025;-72
2020/12/03 02:49:23;;;;;;;0.30;0.30;;;;;;;;;;5072251;28;20019;-72
2020/12/03 02:51:49;;;;;;;0.30;0.30;;;;;;;;;;5055754;28;20719;-70
2020/12/03 02:54:14;;;;;;;0.40;0.40;;;;;;;;;;5072326;28;20074;-71
2020/12/03 02:56:40;;;;;;;0.35;0.35;;;;;;;;;;5055301;28;20032;-72
2020/12/03 02:59:05;;;;;;;0.40;0.40;;;;;;;;;;5055098;28;20448;-72
2020/12/03 03:01:30;;;;;;;0.30;0.30;;;;;;;;;;5088023;28;20039;-73
2020/12/03 03:03:55;;;;;;;0.30;0.30;;;;;;;;;;5075108;28;20020;-72
2020/12/03 03:06:21;;;;;;;0.40;0.40;;;;;;;;;;5058740;28;20122;-72
2020/12/03 03:08:46;;;;;;;0.30;0.30;;;;;;;;;;5074987;28;20055;-72
2020/12/03 03:11:11;;;;;;;0.30;0.30;;;;;;;;;;5058599;28;20734;-72
2020/12/03 03:13:36;;;;;;;0.30;0.30;;;;;;;;;;5058623;28;20078;-73
2020/12/03 03:16:02;;;;;;;0.30;0.30;;;;;;;;;;5075351;28;20265;-71
2020/12/03 03:18:27;;;;;;;0.30;0.30;;;;;;;;;;5058278;28;20066;-72
2020/12/03 03:20:52;;;;;;;0.30;0.30;;;;;;;;;;5074670;28;20042;-71
2020/12/03 03:23:18;;;;;;;0.30;0.30;;;;;;;;;;5092970;28;20035;-72
2020/12/03 03:25:43;;;;;;;0.30;0.30;;;;;;;;;;5058217;28;20024;-72
2020/12/03 03:28:09;;;;;;;0.30;0.30;;;;;;;;;;5075187;28;20016;-72
2020/12/03 03:30:34;;;;;;;0.40;0.40;;;;;;;;;;5058297;28;20043;-72
2020/12/03 03:32:59;;;;;;;0.40;0.40;;;;;;;;;;5075243;28;20025;-71
2020/12/03 03:35:24;;;;;;;0.30;0.30;;;;;;;;;;5074375;28;20020;-71
2020/12/03 03:37:50;;;;;;;0.30;0.30;;;;;;;;;;5092615;28;20281;-72
2020/12/03 03:40:15;;;;;;;0.40;0.40;;;;;;;;;;5074834;28;20017;-72
2020/12/03 03:42:41;;;;;;;0.30;0.30;;;;;;;;;;5058112;28;20115;-72
2020/12/03 03:45:07;;;;;;;0.30;0.30;;;;;;;;;;5073907;28;20630;-72
2020/12/03 03:47:32;;;;;;;0.32;0.32;;;;;;;;;;5074718;28;20022;-72
2020/12/03 03:49:57;;;;;;;0.30;0.30;;;;;;;;;;5074734;28;20016;-72
2020/12/03 03:52:23;;;;;;;0.40;0.40;;;;;;;;;;5092815;28;20020;-72
2020/12/03 03:54:48;;;;;;;0.40;0.40;;;;;;;;;;5093066;28;20509;-72
2020/12/03 03:57:13;;;;;;;0.40;0.40;;;;;;;;;;5074895;28;20080;-72
2020/12/03 03:59:39;;;;;;;0.40;0.40;;;;;;;;;;5058009;28;20016;-72
2020/12/03 04:02:04;;;;;;;0.30;0.30;;;;;;;;;;5050890;28;20625;-72
2020/12/03 04:04:29;;;;;;;0.40;0.40;;;;;;;;;;5051134;28;20040;-72
2020/12/03 04:06:55;;;;;;;0.30;0.30;;;;;;;;;;5051182;28;20266;-72
2020/12/03 04:09:21;;;;;;;0.30;0.30;;;;;;;;;;5051372;28;20021;-72
2020/12/03 04:11:46;;;;;;;0.40;0.40;;;;;;;;;;5051377;28;20028;-72
2020/12/03 04:14:11;;;;;;;0.30;0.30;;;;;;;;;;5054805;28;20102;-72
2020/12/03 04:16:37;;;;;;;0.30;0.30;;;;;;;;;;5055076;28;20102;-72
2020/12/03 04:19:03;;;;;;;0.40;0.40;;;;;;;;;;5054739;28;20044;-72
2020/12/03 04:21:28;;;;;;;0.30;0.30;;;;;;;;;;5055101;28;20033;-72
2020/12/03 04:23:54;;;;;;;0.30;0.30;;;;;;;;;;5055745;28;20052;-72
2020/12/03 04:26:19;;;;;;;0.30;0.30;;;;;;;;;;5054921;28;20021;-72
2020/12/03 04:28:45;;;;;;;0.30;0.30;;;;;;;;;;5054910;28;20017;-72
2020/12/03 04:31:10;;;;;;;0.32;0.32;;;;;;;;;;5054914;28;20025;-72
2020/12/03 04:33:35;;;;;;;0.30;0.30;;;;;;;;;;5037995;28;20025;-72
2020/12/03 04:36:02;;;;;;;0.30;0.30;;;;;;;;;;5055698;28;20040;-72
2020/12/03 04:38:27;;;;;;;0.30;0.30;;;;;;;;;;5054812;28;20350;-72
2020/12/03 04:40:53;;;;;;;0.30;0.30;;;;;;;;;;5054242;28;20033;-72
2020/12/03 04:43:37;;;;;;;0.30;0.30;;;;;;;;;;5037718;28;20032;-72
2020/12/03 04:46:21;;;;;;;0.30;0.30;;;;;;;;;;5054294;28;20337;-72
2020/12/03 04:49:05;;;;;;;0.30;0.30;;;;;;;;;;5055713;28;20100;-72
2020/12/03 04:51:38;;;;;;;0.40;0.40;;;;;;;;;;5055714;28;20114;-72
2020/12/03 04:54:09;;;;;;;0.30;0.30;;;;;;;;;;5053935;28;20017;-72
2020/12/03 04:56:43;;;;;;;0.30;0.30;;;;;;;;;;5037551;28;20461;-72
2020/12/03 04:59:21;;;;;;;0.30;0.30;;;;;;;;;;5054079;28;20021;-72
2020/12/03 05:01:52;;;;;;;0.40;0.40;;;;;;;;;;5054163;28;20806;-71
2020/12/03 05:04:20;;;;;;;0.30;0.30;;;;;;;;;;5055017;28;20017;-72
2020/12/03 05:06:47;;;;;;;0.32;0.32;;;;;;;;;;5054303;28;20480;-71
2020/12/03 05:09:20;;;;;;;0.30;0.30;;;;;;;;;;5053439;28;20021;-71
2020/12/03 05:11:47;;;;;;;0.30;0.30;;;;;;;;;;5037098;28;20032;-71
2020/12/03 05:14:21;;;;;;;0.40;0.40;;;;;;;;;;5053936;28;20017;-71
2020/12/03 05:16:52;;;;;;;0.30;0.30;;;;;;;;;;5053710;28;20021;-71
2020/12/03 05:19:22;;;;;;;0.30;0.30;;;;;;;;;;5053682;28;20465;-71
2020/12/03 05:21:47;;;;;;;0.30;0.30;;;;;;;;;;5054048;28;20422;-72
2020/12/03 05:24:13;;;;;;;0.32;0.32;;;;;;;;;;5053765;28;20032;-72
2020/12/03 05:26:38;;;;;;;0.30;0.30;;;;;;;;;;5053205;28;20017;-72
2020/12/03 05:29:04;;;;;;;0.30;0.30;;;;;;;;;;5037108;28;20465;-72
2020/12/03 05:31:30;;;;;;;0.30;0.30;;;;;;;;;;5053602;28;20267;-72
2020/12/03 05:33:57;;;;;;;0.40;0.40;;;;;;;;;;5053639;28;20114;-71
2020/12/03 05:36:24;;;;;;;0.30;0.30;;;;;;;;;;5053750;28;20017;-71
2020/12/03 05:38:50;;;;;;;0.40;0.40;;;;;;;;;;5053274;28;20111;-72
2020/12/03 05:41:16;;;;;;;0.38;0.38;;;;;;;;;;5053602;28;20457;-72
2020/12/03 05:43:41;;;;;;;0.35;0.35;;;;;;;;;;5054702;28;20032;-72
2020/12/03 05:46:07;;;;;;;0.30;0.30;;;;;;;;;;5053808;28;20025;-72
2020/12/03 05:48:32;;;;;;;0.30;0.30;;;;;;;;;;5053493;28;20020;-72
2020/12/03 05:50:58;;;;;;;0.40;0.40;;;;;;;;;;5036601;28;20039;-71
2020/12/03 05:53:24;;;;;;;0.30;0.30;;;;;;;;;;5052692;28;20282;-72
2020/12/03 05:55:49;;;;;;;0.40;0.40;;;;;;;;;;5052772;28;20527;-72
2020/12/03 05:58:20;;;;;;;0.30;0.30;;;;;;;;;;5053573;28;20021;-72
2020/12/03 06:00:45;;;;;;;0.30;0.30;;;;;;;;;;5061537;28;20464;-71
2020/12/03 06:03:10;;;;;;;0.30;0.30;;;;;;;;;;5043201;28;20052;-72
2020/12/03 06:05:54;;;;;;;0.30;0.30;;;;;;;;;;5072811;28;20016;-72
2020/12/03 06:08:35;;;;;;;0.30;0.30;;;;;;;;;;5061575;28;20050;-71
2020/12/03 06:11:20;;;;;;;0.30;0.30;;;;;;;;;;5058641;28;20016;-71
2020/12/03 06:13:52;;;;;;;0.30;0.30;;;;;;;;;;5055449;28;20033;-72
2020/12/03 06:16:21;;;;;;;0.30;0.30;;;;;;;;;;5016952;28;20524;-72
2020/12/03 06:18:51;;;;;;;0.30;0.30;;;;;;;;;;5046606;28;20032;-72
2020/12/03 06:21:18;;;;;;;0.30;0.30;;;;;;;;;;5064814;28;20044;-71
2020/12/03 06:23:46;;;;;;;0.30;0.30;;;;;;;;;;5052356;28;20023;-72
2020/12/03 06:26:30;;;;;;;0.30;0.30;;;;;;;;;;5051183;28;20100;-72
2020/12/03 06:29:14;;;;;;;0.32;0.32;;;;;;;;;;5053497;28;20017;-72
2020/12/03 06:31:48;;;;;;;0.30;0.30;;;;;;;;;;5052230;28;20027;-72
2020/12/03 06:34:16;;;;;;;0.30;0.30;;;;;;;;;;5037793;28;20079;-73
2020/12/03 06:36:42;;;;;;;0.30;0.30;;;;;;;;;;5052052;28;20048;-73
2020/12/03 06:39:17;;;;;;;0.40;0.40;;;;;;;;;;5036146;28;20030;-73
2020/12/03 06:41:45;;;;;;;0.30;0.30;;;;;;;;;;5032045;28;20773;-73
2020/12/03 06:44:28;;;;;;;0.30;0.30;;;;;;;;;;5057585;28;20024;-72
2020/12/03 06:46:56;;;;;;;0.30;0.30;;;;;;;;;;5072001;28;20817;-72
2020/12/03 06:49:40;;;;;;;0.35;0.35;;;;;;;;;;5062682;28;20473;-72
2020/12/03 06:52:24;;;;;;;0.30;0.30;;;;;;;;;;5064640;28;20073;-71
2020/12/03 06:55:08;;;;;;;0.38;0.38;;;;;;;;;;5065857;28;21156;-73
2020/12/03 06:57:34;;;;;;;0.30;0.30;;;;;;;;;;5042503;28;20025;-72
2020/12/03 07:00:20;;;;;;;0.30;0.30;;;;;;;;;;5053954;28;20025;-73
2020/12/03 07:03:02;;;;;;;0.30;0.30;;;;;;;;;;5081332;28;20672;-72
2020/12/03 07:05:47;;;;;;;0.30;0.30;;;;;;;;;;5074427;28;20427;-73
2020/12/03 07:08:15;;;;;;;0.40;0.40;;;;;;;;;;5073532;28;20045;-73
2020/12/03 07:10:56;;;;;;;0.30;0.30;;;;;;;;;;5091997;28;20464;-72
2020/12/03 07:13:47;;;;;;;0.40;0.40;;;;;;;;;;5072585;28;20024;-71
2020/12/03 07:16:31;;;;;;;0.40;0.40;;;;;;;;;;5058831;28;20032;-72
2020/12/03 07:19:15;;;;;;;0.30;0.30;;;;;;;;;;5091907;28;20074;-71
2020/12/03 07:21:49;;;;;;;0.38;0.38;;;;;;;;;;5092202;28;20039;-71
2020/12/03 07:24:16;;;;;;;0.30;0.30;;;;;;;;;;5091734;28;20585;-72
2020/12/03 07:27:06;;;;;;;0.30;0.30;;;;;;;;;;5070934;28;20017;-72
2020/12/03 07:29:51;;;;;;;0.40;0.40;;;;;;;;;;5070849;28;20028;-70
2020/12/03 07:32:26;;;;;;;0.40;0.40;;;;;;;;;;5069635;28;20539;-74
2020/12/03 07:34:57;;;;;;;0.30;0.30;;;;;;;;;;5091694;28;20032;-73
2020/12/03 07:37:28;;;;;;;0.30;0.30;;;;;;;;;;5071562;28;20020;-73
2020/12/03 07:39:53;;;;;;;0.40;0.40;;;;;;;;;;5073272;28;20016;-73
2020/12/03 07:42:22;;;;;;;0.30;0.30;;;;;;;;;;5076832;28;20021;-74
2020/12/03 07:44:50;;;;;;;0.30;0.30;;;;;;;;;;5062153;28;20020;-73
2020/12/03 07:47:31;;;;;;;0.40;0.40;;;;;;;;;;5076164;28;20091;-74
2020/12/03 07:49:57;;;;;;;0.40;0.40;;;;;;;;;;5083055;28;20536;-74
2020/12/03 07:52:27;;;;;;;0.30;0.30;;;;;;;;;;5085492;28;20052;-74
2020/12/03 07:54:52;;;;;;;0.30;0.30;;;;;;;;;;5081797;28;20069;-74
2020/12/03 07:57:33;;;;;;;0.30;0.30;;;;;;;;;;5078558;28;20020;-74
2020/12/03 07:59:58;;;;;;;0.30;0.30;;;;;;;;;;5095936;28;20030;-72
2020/12/03 08:02:42;;;;;;;0.32;0.32;;;;;;;;;;5079128;28;20028;-73
2020/12/03 08:05:26;;;;;;;0.30;0.30;;;;;;;;;;5076707;28;20145;-73
2020/12/03 08:07:53;;;;;;;0.30;0.30;;;;;;;;;;5072939;28;20012;-72
2020/12/03 08:10:37;;;;;;;0.30;0.30;;;;;;;;;;5079256;28;20035;-72
2020/12/03 08:13:15;;;;;;;0.30;0.30;;;;;;;;;;5049969;28;20593;-73
2020/12/03 08:15:40;;;;;;;0.38;0.38;;;;;;;;;;5089373;28;20491;-73
2020/12/03 08:18:14;;;;;;;0.30;0.30;;;;;;;;;;5096297;28;20024;-72
2020/12/03 08:20:40;;;;;;;0.30;0.30;;;;;;;;;;5078213;28;20039;-72
2020/12/03 08:23:06;;;;;;;0.35;0.35;;;;;;;;;;5078004;28;20013;-71
2020/12/03 08:25:32;;;;;;;0.30;0.30;;;;;;;;;;5096025;28;20016;-72
2020/12/03 08:28:00;;;;;;;0.30;0.30;;;;;;;;;;5077019;28;20039;-72
2020/12/03 08:30:38;;;;;;;0.40;0.40;;;;;;;;;;5067479;28;20016;-72
2020/12/03 08:33:07;;;;;;;0.30;0.30;;;;;;;;;;5078756;28;20031;-72
2020/12/03 08:35:33;;;;;;;0.35;0.35;;;;;;;;;;5061500;28;20117;-72
2020/12/03 08:38:01;;;;;;;0.30;0.30;;;;;;;;;;5087149;28;20972;-72
2020/12/03 08:40:27;;;;;;;0.30;0.30;;;;;;;;;;5063766;28;20085;-72
2020/12/03 08:42:53;;;;;;;0.30;0.30;;;;;;;;;;5041288;28;20112;-75
2020/12/03 08:45:18;;;;;;;0.30;0.30;;;;;;;;;;5071682;28;20817;-71
2020/12/03 08:47:45;;;;;;;0.30;0.30;;;;;;;;;;5071975;28;20472;-75
2020/12/03 08:50:13;;;;;;;0.30;0.30;;;;;;;;;;5078456;28;20107;-70
2020/12/03 08:52:39;;;;;;;0.30;0.30;;;;;;;;;;5077848;28;20023;-71
2020/12/03 08:55:07;;;;;;;0.35;0.35;;;;;;;;;;5096030;28;20031;-72
2020/12/03 08:57:35;;;;;;;0.40;0.40;;;;;;;;;;5061187;28;20028;-71
2020/12/03 09:00:01;;;;;;;0.30;0.30;;;;;;;;;;5058477;28;20055;-70
2020/12/03 09:02:26;;;;;;;0.30;0.30;;;;;;;;;;5060322;28;20016;-73
2020/12/03 09:04:52;;;;;;;0.40;0.40;;;;;;;;;;5056658;28;20035;-72
2020/12/03 09:07:19;;;;;;;0.40;0.40;;;;;;;;;;5074240;28;20368;-70
2020/12/03 09:09:44;;;;;;;0.32;0.32;;;;;;;;;;5080117;28;20020;-70
2020/12/03 09:12:10;;;;;;;0.30;0.30;;;;;;;;;;5056977;28;20025;-69
2020/12/03 09:14:36;;;;;;;0.35;0.35;;;;;;;;;;5069595;28;20047;-72
2020/12/03 09:17:04;;;;;;;0.30;0.30;;;;;;;;;;5084214;28;20038;-73
2020/12/03 09:19:29;;;;;;;0.30;0.30;;;;;;;;;;5105532;28;20015;-73
2020/12/03 09:21:55;;;;;;;0.30;0.30;;;;;;;;;;5103028;28;20049;-73
2020/12/03 09:24:21;;;;;;;0.30;0.30;;;;;;;;;;5093859;28;20127;-74
2020/12/03 09:26:46;;;;;;;0.30;0.30;;;;;;;;;;5077535;28;20016;-73
2020/12/03 09:29:11;;;;;;;0.30;0.30;;;;;;;;;;5059198;28;20031;-71
2020/12/03 09:31:37;;;;;;;0.30;0.30;;;;;;;;;;5057482;28;20027;-72
2020/12/03 09:34:03;;;;;;;0.30;0.30;;;;;;;;;;5076711;28;20073;-74
2020/12/03 09:36:28;;;;;;;0.30;0.30;;;;;;;;;;5090048;28;20074;-72
2020/12/03 09:38:55;;;;;;;0.95;0.30;;;;;;;;;;5045875;28;20380;-72
2020/12/03 09:41:21;;;;;;;0.30;0.30;;;;;;;;;;5039408;28;20021;-71
2020/12/03 09:43:48;;;;;;;0.30;0.30;;;;;;;;;;5080011;28;20011;-71
2020/12/03 09:46:14;;;;;;;0.30;0.30;;;;;;;;;;5079185;28;20358;-73
2020/12/03 09:48:41;;;;;;;0.30;0.30;;;;;;;;;;5076838;28;20397;-75
2020/12/03 09:51:06;;;;;;;0.30;0.30;;;;;;;;;;5060427;28;20028;-74
2020/12/03 09:53:32;;;;;;;0.30;0.30;;;;;;;;;;5076403;28;20042;-74
2020/12/03 09:55:59;;;;;;;0.30;0.30;;;;;;;;;;5076636;28;20107;-74
2020/12/03 09:58:25;;;;;;;0.30;0.30;;;;;;;;;;5076406;28;20102;-73
2020/12/03 10:00:51;;;;;;;0.30;0.30;;;;;;;;;;5099993;28;20165;-74
2020/12/03 10:03:35;;;;;;;0.30;0.30;;;;;;;;;;5069392;28;20054;-74
2020/12/03 10:06:02;;;;;;;0.40;0.40;;;;;;;;;;5082231;28;20074;-72
2020/12/03 10:08:38;;;;;;;0.30;0.30;;;;;;;;;;5053105;28;20042;-71
2020/12/03 10:11:21;;;;;;;0.30;0.30;;;;;;;;;;5047753;28;20021;-72
2020/12/03 10:13:56;;;;;;;0.20;0.20;;;;;;;;;;5075789;28;20742;-73
2020/12/03 10:16:22;;;;;;;0.30;0.30;;;;;;;;;;5076148;28;20058;-71
2020/12/03 10:18:51;;;;;;;0.30;0.30;;;;;;;;;;5075885;28;20055;-73
2020/12/03 10:21:23;;;;;;;0.30;0.30;;;;;;;;;;5076122;28;20412;-72
2020/12/03 10:24:10;;;;;;;0.30;0.30;;;;;;;;;;5094171;28;20055;-70
2020/12/03 10:26:37;;;;;;;0.30;0.30;;;;;;;;;;5055721;28;20016;-72
2020/12/03 10:29:21;;;;;;;0.30;0.30;;;;;;;;;;5039588;28;20055;-73
2020/12/03 10:31:46;;;;;;;0.32;0.32;;;;;;;;;;5073811;28;20028;-74
2020/12/03 10:34:12;;;;;;;0.30;0.30;;;;;;;;;;5041859;28;20349;-74
2020/12/03 10:36:46;;;;;;;0.30;0.30;;;;;;;;;;5074114;28;20023;-74
2020/12/03 10:39:12;;;;;;;0.30;0.30;;;;;;;;;;5093158;28;20103;-73
2020/12/03 10:41:38;;;;;;;0.30;0.30;;;;;;;;;;5064015;28;20307;-72
2020/12/03 10:44:04;;;;;;;0.30;0.30;;;;;;;;;;5058865;28;20104;-72
2020/12/03 10:46:30;;;;;;;0.30;0.30;;;;;;;;;;5057977;28;20111;-74
2020/12/03 10:48:57;;;;;;;0.30;0.30;;;;;;;;;;5075839;28;20103;-73
2020/12/03 10:51:23;;;;;;;0.30;0.30;;;;;;;;;;5075517;28;20380;-73
2020/12/03 10:53:50;;;;;;;0.30;0.30;;;;;;;;;;5075435;28;20027;-73
2020/12/03 10:56:15;;;;;;;0.30;0.30;;;;;;;;;;5076472;28;20020;-75
2020/12/03 10:58:51;;;;;;;0.30;0.30;;;;;;;;;;5076411;28;20027;-74
2020/12/03 11:01:21;;;;;;;0.30;0.30;;;;;;;;;;5071742;28;20044;-73
2020/12/03 11:03:46;;;;;;;0.30;0.30;;;;;;;;;;5072026;28;20036;-74
2020/12/03 11:06:11;;;;;;;0.30;0.30;;;;;;;;;;5072126;28;20088;-74
2020/12/03 11:08:37;;;;;;;0.30;0.30;;;;;;;;;;5055138;28;20027;-74
2020/12/03 11:11:02;;;;;;;0.30;0.30;;;;;;;;;;5075172;28;20032;-74
2020/12/03 11:13:28;;;;;;;0.30;0.30;;;;;;;;;;5069139;28;20095;-73
2020/12/03 11:15:55;;;;;;;0.30;0.30;;;;;;;;;;5072271;28;20016;-70
2020/12/03 11:18:21;;;;;;;0.30;0.30;;;;;;;;;;5054849;28;20033;-69
2020/12/03 11:20:46;;;;;;;0.20;0.20;;;;;;;;;;5051955;28;20025;-70
2020/12/03 11:23:30;;;;;;;0.30;0.30;;;;;;;;;;5054318;28;20021;-70
2020/12/03 11:26:05;;;;;;;0.30;0.30;;;;;;;;;;5088179;28;20095;-71
2020/12/03 11:28:31;;;;;;;0.27;0.27;;;;;;;;;;5083126;28;20055;-72
2020/12/03 11:31:01;;;;;;;0.30;0.30;;;;;;;;;;5063358;28;20021;-71
2020/12/03 11:33:28;;;;;;;0.30;0.30;;;;;;;;;;5069393;28;20040;-70
2020/12/03 11:36:16;;;;;;;0.30;0.30;;;;;;;;;;5071635;28;20024;-70
2020/12/03 11:38:44;;;;;;;0.30;0.30;;;;;;;;;;5054890;28;20031;-71
2020/12/03 11:41:17;;;;;;;0.30;0.30;;;;;;;;;;5071386;28;20020;-71
2020/12/03 11:48:46;;;;;;;0.30;0.30;;;;;;;;;;5073098;28;20017;-70
2020/12/03 11:51:27;;;;;;;0.30;0.30;;;;;;;;;;5078750;28;20024;-70
2020/12/03 11:54:00;;;;;;;0.30;0.30;;;;;;;;;;5067653;28;20028;-70
2020/12/03 11:56:25;;;;;;;0.30;0.30;;;;;;;;;;5071681;28;20380;-70
2020/12/03 11:58:52;;;;;;;0.20;0.20;;;;;;;;;;5071457;28;20024;-70
2020/12/03 12:01:17;;;;;;;0.30;0.30;;;;;;;;;;5054648;28;20064;-71
2020/12/03 12:03:46;;;;;;;0.25;0.25;;;;;;;;;;5071571;28;20096;-70
2020/12/03 12:06:27;;;;;;;0.30;0.30;;;;;;;;;;5071823;28;20039;-70
2020/12/03 12:09:05;;;;;;;0.30;0.30;;;;;;;;;;5062693;28;20016;-70
2020/12/03 12:11:35;;;;;;;0.30;0.30;;;;;;;;;;5071652;28;20029;-70
2020/12/03 12:14:00;;;;;;;0.30;0.30;;;;;;;;;;5071443;28;20020;-70
2020/12/03 12:16:26;;;;;;;0.20;0.20;;;;;;;;;;5070001;28;20090;-70
2020/12/03 12:18:53;;;;;;;0.25;0.25;;;;;;;;;;5070806;28;20385;-70
2020/12/03 12:21:18;;;;;;;0.30;0.30;;;;;;;;;;5073063;28;20107;-69
2020/12/03 12:23:43;;;;;;;0.20;0.20;;;;;;;;;;5070702;28;20747;-70
2020/12/03 12:26:10;;;;;;;0.30;0.30;;;;;;;;;;5071910;28;20381;-70
2020/12/03 12:28:36;;;;;;;0.30;0.30;;;;;;;;;;5072140;28;20016;-70
2020/12/03 12:31:01;;;;;;;0.30;0.30;;;;;;;;;;5051423;28;20032;-70
2020/12/03 12:33:26;;;;;;;0.30;0.30;;;;;;;;;;5069290;28;20028;-70
2020/12/03 12:35:56;;;;;;;0.20;0.20;;;;;;;;;;5074955;28;20059;-68
2020/12/03 12:38:21;;;;;;;0.20;0.20;;;;;;;;;;5072075;28;20037;-70
2020/12/03 12:40:46;;;;;;;0.30;0.30;;;;;;;;;;5074873;28;20027;-70
2020/12/03 12:43:12;;;;;;;0.30;0.30;;;;;;;;;;5053957;28;20012;-74
2020/12/03 12:45:37;;;;;;;0.28;0.28;;;;;;;;;;5055783;28;20017;-72
2020/12/03 12:48:02;;;;;;;0.20;0.20;;;;;;;;;;5054623;28;20021;-72
2020/12/03 12:50:27;;;;;;;0.30;0.30;;;;;;;;;;5055073;28;20029;-72
2020/12/03 12:52:53;;;;;;;0.20;0.20;;;;;;;;;;5071892;28;20035;-71
2020/12/03 12:55:18;;;;;;;0.20;0.20;;;;;;;;;;5057274;28;20078;-71
2020/12/03 12:57:43;;;;;;;0.30;0.30;;;;;;;;;;5075738;28;20047;-71
2020/12/03 13:00:08;;;;;;;0.22;0.22;;;;;;;;;;5075970;28;20024;-71
2020/12/03 13:02:34;;;;;;;0.28;0.28;;;;;;;;;;5073185;28;20028;-71
2020/12/03 13:04:59;;;;;;;0.30;0.30;;;;;;;;;;5069376;28;20009;-71
2020/12/03 13:07:24;;;;;;;0.30;0.30;;;;;;;;;;5057766;28;20457;-71
2020/12/03 13:09:50;;;;;;;0.30;0.30;;;;;;;;;;5077475;28;20384;-71
2020/12/03 13:12:17;;;;;;;0.30;0.30;;;;;;;;;;5077439;28;20024;-71
2020/12/03 13:14:42;;;;;;;0.28;0.28;;;;;;;;;;5057352;28;20047;-71
2020/12/03 13:17:07;;;;;;;0.30;0.30;;;;;;;;;;5090509;28;20463;-71
2020/12/03 13:19:32;;;;;;;0.30;0.30;;;;;;;;;;5077146;28;20103;-71
2020/12/03 13:21:58;;;;;;;0.20;0.20;;;;;;;;;;5077255;28;20020;-71
2020/12/03 13:24:24;;;;;;;0.30;0.30;;;;;;;;;;5056092;28;20491;-71
2020/12/03 13:26:49;;;;;;;0.20;0.20;;;;;;;;;;5074499;28;20099;-71
2020/12/03 13:29:14;;;;;;;0.30;0.30;;;;;;;;;;5080356;28;20031;-71
2020/12/03 13:31:43;;;;;;;0.30;0.30;;;;;;;;;;5060374;28;20103;-71
2020/12/03 13:34:09;;;;;;;0.30;0.30;;;;;;;;;;5056857;28;20016;-70
2020/12/03 13:36:34;;;;;;;0.20;0.20;;;;;;;;;;5056793;28;20024;-71
2020/12/03 13:39:02;;;;;;;0.20;0.20;;;;;;;;;;5071421;28;20527;-70
2020/12/03 13:41:27;;;;;;;0.20;0.20;;;;;;;;;;5076280;28;20009;-71
2020/12/03 13:43:52;;;;;;;0.22;0.22;;;;;;;;;;5059129;28;20349;-70
2020/12/03 13:46:17;;;;;;;0.30;0.30;;;;;;;;;;5073791;28;20503;-70
2020/12/03 13:48:43;;;;;;;0.20;0.20;;;;;;;;;;5075778;28;20012;-70
2020/12/03 13:51:08;;;;;;;0.20;0.20;;;;;;;;;;5076619;28;20031;-70
2020/12/03 13:53:36;;;;;;;0.20;0.20;;;;;;;;;;5095063;28;20050;-71
2020/12/03 13:56:02;;;;;;;0.25;0.25;;;;;;;;;;5077869;28;20081;-70
2020/12/03 13:58:28;;;;;;;0.20;0.20;;;;;;;;;;5080604;28;20016;-71
2020/12/03 14:00:53;;;;;;;0.20;0.20;;;;;;;;;;5110964;28;20048;-70
2020/12/03 14:03:19;;;;;;;0.30;0.30;;;;;;;;;;5094062;28;20054;-72
2020/12/03 14:05:44;;;;;;;0.30;0.30;;;;;;;;;;5079700;28;20065;-74
2020/12/03 14:08:10;;;;;;;0.20;0.20;;;;;;;;;;5083798;28;20035;-75
2020/12/03 14:10:35;;;;;;;0.30;0.30;;;;;;;;;;5102035;28;20080;-73
2020/12/03 14:13:01;;;;;;;0.20;0.20;;;;;;;;;;5094748;28;20020;-72
2020/12/03 14:15:27;;;;;;;0.30;0.30;;;;;;;;;;5074777;28;20095;-72
2020/12/03 14:17:53;;;;;;;0.22;0.22;;;;;;;;;;5076352;28;20054;-72
2020/12/03 14:20:19;;;;;;;0.20;0.20;;;;;;;;;;5057753;28;20036;-72
2020/12/03 14:22:44;;;;;;;0.20;0.20;;;;;;;;;;5072357;28;20043;-73
2020/12/03 14:25:12;;;;;;;0.22;0.22;;;;;;;;;;5073577;28;20061;-73
2020/12/03 14:27:38;;;;;;;0.20;0.20;;;;;;;;;;5091865;28;20024;-75
2020/12/03 14:30:07;;;;;;;0.20;0.20;;;;;;;;;;5091655;28;20016;-72
2020/12/03 14:32:33;;;;;;;0.20;0.20;;;;;;;;;;5073339;28;20020;-74
2020/12/03 14:34:58;;;;;;;0.20;0.20;;;;;;;;;;5073960;28;20404;-73
2020/12/03 14:37:23;;;;;;;0.20;0.20;;;;;;;;;;5071579;28;20031;-76
2020/12/03 14:39:49;;;;;;;0.20;0.20;;;;;;;;;;5091375;28;20032;-76
2020/12/03 14:42:16;;;;;;;0.20;0.20;;;;;;;;;;5058021;28;20016;-76
2020/12/03 14:44:41;;;;;;;0.30;0.30;;;;;;;;;;5090752;28;20028;-75
2020/12/03 14:47:07;;;;;;;0.20;0.20;;;;;;;;;;5088014;28;20040;-75
2020/12/03 14:49:32;;;;;;;0.25;0.25;;;;;;;;;;5074829;28;20051;-75
2020/12/03 14:52:02;;;;;;;0.20;0.20;;;;;;;;;;5093470;28;20032;-72
2020/12/03 14:54:30;;;;;;;0.20;0.20;;;;;;;;;;5041943;28;20028;-74